Sloan, Nevada
Current Conditions -  °F | °C
As of 5:36 AM on Thursday 18 Dec 2014 (Local Time) from KHND Reporting Station
Broken Clouds Broken Clouds  
Wind Chill: 35°   Ceiling: 1200
Heat Index: 39°   Visibility: 10mi
Dew Point: 36°   Wind: 6mph
Humidity: 87%   Direction: 170°S
Pressure: 30.13"   Gusts: NA
Location:  35.8437°N, 115.134°W
Report Text: KHND 181336Z 17005KT 10SM SCT007 BKN012 BKN027 04/02 A3013 RMK AO2
Loading
Personal Weather Stations






























Interactive Weather Map New forecast layout! Learn more

10-Day Weather Forecast

Advertisements
Track Severe Weather on mobile